sensor_id;sensor_type;location;lat;lon;timestamp;P1;durP1;ratioP1;P2;durP2;ratioP2
63499;SDS011;49654;51.142;14.924;2023-03-23T00:01:00;2.10;;;1.80;;
63499;SDS011;49654;51.142;14.924;2023-03-23T00:03:27;4.55;;;2.17;;
63499;SDS011;49654;51.142;14.924;2023-03-23T00:05:57;2.40;;;1.95;;
63499;SDS011;49654;51.142;14.924;2023-03-23T00:08:30;2.50;;;1.80;;
63499;SDS011;49654;51.142;14.924;2023-03-23T00:10:57;3.22;;;1.92;;
63499;SDS011;49654;51.142;14.924;2023-03-23T00:13:27;3.65;;;1.88;;
63499;SDS011;49654;51.142;14.924;2023-03-23T00:15:56;5.20;;;2.28;;
63499;SDS011;49654;51.142;14.924;2023-03-23T00:18:23;3.83;;;2.17;;
63499;SDS011;49654;51.142;14.924;2023-03-23T00:20:51;4.05;;;2.20;;
63499;SDS011;49654;51.142;14.924;2023-03-23T00:23:20;4.55;;;2.60;;
63499;SDS011;49654;51.142;14.924;2023-03-23T00:25:50;4.88;;;2.67;;
63499;SDS011;49654;51.142;14.924;2023-03-23T00:28:22;5.30;;;2.30;;
63499;SDS011;49654;51.142;14.924;2023-03-23T00:30:56;5.45;;;3.00;;
63499;SDS011;49654;51.142;14.924;2023-03-23T00:33:25;3.70;;;2.58;;
63499;SDS011;49654;51.142;14.924;2023-03-23T00:35:54;3.85;;;2.78;;
63499;SDS011;49654;51.142;14.924;2023-03-23T00:38:22;5.15;;;3.33;;
63499;SDS011;49654;51.142;14.924;2023-03-23T00:40:49;6.32;;;3.47;;
63499;SDS011;49654;51.142;14.924;2023-03-23T00:43:17;5.03;;;2.75;;
63499;SDS011;49654;51.142;14.924;2023-03-23T00:45:46;4.05;;;2.60;;
63499;SDS011;49654;51.142;14.924;2023-03-23T00:48:19;3.60;;;2.40;;
63499;SDS011;49654;51.142;14.924;2023-03-23T00:50:46;4.20;;;2.20;;
63499;SDS011;49654;51.142;14.924;2023-03-23T00:53:13;5.35;;;2.58;;
63499;SDS011;49654;51.142;14.924;2023-03-23T00:55:40;2.95;;;2.10;;
63499;SDS011;49654;51.142;14.924;2023-03-23T00:58:08;3.38;;;1.88;;
63499;SDS011;49654;51.142;14.924;2023-03-23T01:00:35;5.35;;;2.33;;
63499;SDS011;49654;51.142;14.924;2023-03-23T01:03:02;2.75;;;1.92;;
63499;SDS011;49654;51.142;14.924;2023-03-23T01:05:32;3.78;;;2.28;;
63499;SDS011;49654;51.142;14.924;2023-03-23T01:08:02;3.13;;;1.95;;
63499;SDS011;49654;51.142;14.924;2023-03-23T01:10:29;5.10;;;2.00;;
63499;SDS011;49654;51.142;14.924;2023-03-23T01:12:58;2.15;;;1.80;;
63499;SDS011;49654;51.142;14.924;2023-03-23T01:15:26;2.20;;;1.80;;
63499;SDS011;49654;51.142;14.924;2023-03-23T01:17:54;2.90;;;2.20;;
63499;SDS011;49654;51.142;14.924;2023-03-23T01:20:22;3.90;;;2.03;;
63499;SDS011;49654;51.142;14.924;2023-03-23T01:22:50;2.35;;;1.90;;
63499;SDS011;49654;51.142;14.924;2023-03-23T01:25:18;2.92;;;2.00;;
63499;SDS011;49654;51.142;14.924;2023-03-23T01:27:45;3.65;;;1.90;;
63499;SDS011;49654;51.142;14.924;2023-03-23T01:30:12;3.60;;;2.00;;
63499;SDS011;49654;51.142;14.924;2023-03-23T01:32:40;3.13;;;1.75;;
63499;SDS011;49654;51.142;14.924;2023-03-23T01:35:07;5.75;;;2.40;;
63499;SDS011;49654;51.142;14.924;2023-03-23T01:37:35;3.05;;;1.80;;
63499;SDS011;49654;51.142;14.924;2023-03-23T01:40:04;2.92;;;1.83;;
63499;SDS011;49654;51.142;14.924;2023-03-23T01:42:32;3.63;;;2.17;;
63499;SDS011;49654;51.142;14.924;2023-03-23T01:48:02;4.78;;;2.45;;
63499;SDS011;49654;51.142;14.924;2023-03-23T01:50:34;5.28;;;2.20;;
63499;SDS011;49654;51.142;14.924;2023-03-23T01:53:07;5.32;;;2.35;;
63499;SDS011;49654;51.142;14.924;2023-03-23T01:55:37;3.78;;;2.30;;
63499;SDS011;49654;51.142;14.924;2023-03-23T01:58:06;3.83;;;2.22;;
63499;SDS011;49654;51.142;14.924;2023-03-23T02:00:35;3.65;;;2.20;;
63499;SDS011;49654;51.142;14.924;2023-03-23T02:03:02;4.13;;;2.35;;
63499;SDS011;49654;51.142;14.924;2023-03-23T02:05:31;3.35;;;2.10;;
63499;SDS011;49654;51.142;14.924;2023-03-23T02:08:00;4.35;;;2.50;;
63499;SDS011;49654;51.142;14.924;2023-03-23T02:10:31;3.08;;;2.20;;
63499;SDS011;49654;51.142;14.924;2023-03-23T02:13:02;5.00;;;2.42;;
63499;SDS011;49654;51.142;14.924;2023-03-23T02:15:33;3.50;;;2.15;;
63499;SDS011;49654;51.142;14.924;2023-03-23T02:18:13;4.07;;;2.60;;
63499;SDS011;49654;51.142;14.924;2023-03-23T02:21:04;4.38;;;2.10;;
63499;SDS011;49654;51.142;14.924;2023-03-23T02:24:03;3.63;;;2.25;;
63499;SDS011;49654;51.142;14.924;2023-03-23T02:26:47;3.28;;;2.20;;
63499;SDS011;49654;51.142;14.924;2023-03-23T02:29:39;4.47;;;2.53;;
63499;SDS011;49654;51.142;14.924;2023-03-23T02:32:24;3.95;;;2.63;;
63499;SDS011;49654;51.142;14.924;2023-03-23T02:35:09;3.95;;;2.65;;
63499;SDS011;49654;51.142;14.924;2023-03-23T02:37:42;5.50;;;2.75;;
63499;SDS011;49654;51.142;14.924;2023-03-23T02:40:14;3.75;;;2.85;;
63499;SDS011;49654;51.142;14.924;2023-03-23T02:42:47;4.50;;;2.67;;
63499;SDS011;49654;51.142;14.924;2023-03-23T02:45:18;5.32;;;3.05;;
63499;SDS011;49654;51.142;14.924;2023-03-23T02:47:48;4.38;;;2.85;;
63499;SDS011;49654;51.142;14.924;2023-03-23T02:50:20;4.85;;;3.22;;
63499;SDS011;49654;51.142;14.924;2023-03-23T02:52:49;5.60;;;3.10;;
63499;SDS011;49654;51.142;14.924;2023-03-23T02:55:18;5.63;;;3.25;;
63499;SDS011;49654;51.142;14.924;2023-03-23T02:57:48;4.97;;;2.95;;
63499;SDS011;49654;51.142;14.924;2023-03-23T03:00:18;4.05;;;2.90;;
63499;SDS011;49654;51.142;14.924;2023-03-23T03:02:46;5.53;;;3.22;;
63499;SDS011;49654;51.142;14.924;2023-03-23T03:05:22;5.32;;;3.33;;
63499;SDS011;49654;51.142;14.924;2023-03-23T03:07:59;6.55;;;3.10;;
63499;SDS011;49654;51.142;14.924;2023-03-23T03:10:34;6.55;;;3.50;;
63499;SDS011;49654;51.142;14.924;2023-03-23T03:13:08;5.20;;;3.30;;
63499;SDS011;49654;51.142;14.924;2023-03-23T03:15:43;4.05;;;3.22;;
63499;SDS011;49654;51.142;14.924;2023-03-23T03:18:16;4.80;;;3.10;;
63499;SDS011;49654;51.142;14.924;2023-03-23T03:20:50;6.20;;;2.88;;
63499;SDS011;49654;51.142;14.924;2023-03-23T03:23:21;4.85;;;3.22;;
63499;SDS011;49654;51.142;14.924;2023-03-23T03:25:50;4.43;;;2.85;;
63499;SDS011;49654;51.142;14.924;2023-03-23T03:28:20;4.82;;;2.83;;
63499;SDS011;49654;51.142;14.924;2023-03-23T03:30:49;3.75;;;2.95;;
63499;SDS011;49654;51.142;14.924;2023-03-23T03:33:19;4.78;;;3.30;;
63499;SDS011;49654;51.142;14.924;2023-03-23T03:35:52;6.88;;;3.03;;
63499;SDS011;49654;51.142;14.924;2023-03-23T03:38:21;5.30;;;2.88;;
63499;SDS011;49654;51.142;14.924;2023-03-23T03:40:48;6.78;;;2.95;;
63499;SDS011;49654;51.142;14.924;2023-03-23T03:43:15;5.03;;;3.00;;
63499;SDS011;49654;51.142;14.924;2023-03-23T03:45:42;6.57;;;2.83;;
63499;SDS011;49654;51.142;14.924;2023-03-23T03:48:10;4.18;;;2.80;;
63499;SDS011;49654;51.142;14.924;2023-03-23T03:50:37;4.75;;;2.92;;
63499;SDS011;49654;51.142;14.924;2023-03-23T03:53:07;3.10;;;2.63;;
63499;SDS011;49654;51.142;14.924;2023-03-23T03:55:33;5.13;;;3.15;;
63499;SDS011;49654;51.142;14.924;2023-03-23T03:58:03;9.48;;;3.90;;
63499;SDS011;49654;51.142;14.924;2023-03-23T04:00:31;6.35;;;3.58;;
63499;SDS011;49654;51.142;14.924;2023-03-23T04:02:58;4.32;;;2.78;;
63499;SDS011;49654;51.142;14.924;2023-03-23T04:05:25;6.97;;;3.33;;
63499;SDS011;49654;51.142;14.924;2023-03-23T04:07:54;3.83;;;2.85;;
63499;SDS011;49654;51.142;14.924;2023-03-23T04:10:29;4.63;;;2.70;;
63499;SDS011;49654;51.142;14.924;2023-03-23T04:12:57;4.88;;;3.10;;
63499;SDS011;49654;51.142;14.924;2023-03-23T04:15:24;6.50;;;4.40;;
63499;SDS011;49654;51.142;14.924;2023-03-23T04:17:53;6.05;;;3.22;;
63499;SDS011;49654;51.142;14.924;2023-03-23T04:20:22;4.70;;;3.20;;
63499;SDS011;49654;51.142;14.924;2023-03-23T04:22:50;5.70;;;2.92;;
63499;SDS011;49654;51.142;14.924;2023-03-23T04:25:20;5.65;;;3.00;;
63499;SDS011;49654;51.142;14.924;2023-03-23T04:27:49;4.65;;;3.13;;
63499;SDS011;49654;51.142;14.924;2023-03-23T04:30:19;4.00;;;2.97;;
63499;SDS011;49654;51.142;14.924;2023-03-23T04:32:48;4.68;;;3.25;;
63499;SDS011;49654;51.142;14.924;2023-03-23T04:35:18;7.43;;;3.60;;
63499;SDS011;49654;51.142;14.924;2023-03-23T04:37:46;5.65;;;3.42;;
63499;SDS011;49654;51.142;14.924;2023-03-23T04:40:14;5.03;;;3.40;;
63499;SDS011;49654;51.142;14.924;2023-03-23T04:42:42;5.28;;;3.13;;
63499;SDS011;49654;51.142;14.924;2023-03-23T04:45:14;4.80;;;3.38;;
63499;SDS011;49654;51.142;14.924;2023-03-23T04:47:47;5.10;;;3.67;;
63499;SDS011;49654;51.142;14.924;2023-03-23T04:50:19;5.13;;;3.75;;
63499;SDS011;49654;51.142;14.924;2023-03-23T04:52:49;4.90;;;3.30;;
63499;SDS011;49654;51.142;14.924;2023-03-23T04:55:17;5.95;;;3.42;;
63499;SDS011;49654;51.142;14.924;2023-03-23T04:57:45;5.90;;;3.28;;
63499;SDS011;49654;51.142;14.924;2023-03-23T05:00:14;7.60;;;3.72;;
63499;SDS011;49654;51.142;14.924;2023-03-23T05:02:42;5.63;;;3.50;;
63499;SDS011;49654;51.142;14.924;2023-03-23T05:05:11;8.23;;;3.72;;
63499;SDS011;49654;51.142;14.924;2023-03-23T05:07:38;8.48;;;3.92;;
63499;SDS011;49654;51.142;14.924;2023-03-23T05:10:07;6.18;;;3.70;;
63499;SDS011;49654;51.142;14.924;2023-03-23T05:12:36;4.90;;;3.55;;
63499;SDS011;49654;51.142;14.924;2023-03-23T05:15:04;4.80;;;3.38;;
63499;SDS011;49654;51.142;14.924;2023-03-23T05:17:36;5.72;;;4.10;;
63499;SDS011;49654;51.142;14.924;2023-03-23T05:20:16;5.70;;;3.50;;
63499;SDS011;49654;51.142;14.924;2023-03-23T05:22:45;4.85;;;3.60;;
63499;SDS011;49654;51.142;14.924;2023-03-23T05:25:16;6.05;;;4.20;;
63499;SDS011;49654;51.142;14.924;2023-03-23T05:27:44;6.85;;;3.75;;
63499;SDS011;49654;51.142;14.924;2023-03-23T05:30:14;6.93;;;4.05;;
63499;SDS011;49654;51.142;14.924;2023-03-23T05:32:43;6.93;;;3.63;;
63499;SDS011;49654;51.142;14.924;2023-03-23T05:35:11;7.35;;;4.47;;
63499;SDS011;49654;51.142;14.924;2023-03-23T05:37:39;7.15;;;4.20;;
63499;SDS011;49654;51.142;14.924;2023-03-23T05:40:06;7.28;;;4.30;;
63499;SDS011;49654;51.142;14.924;2023-03-23T05:42:35;5.63;;;4.40;;
63499;SDS011;49654;51.142;14.924;2023-03-23T05:45:02;7.30;;;4.68;;
63499;SDS011;49654;51.142;14.924;2023-03-23T05:47:30;7.05;;;4.50;;
63499;SDS011;49654;51.142;14.924;2023-03-23T05:49:58;6.22;;;4.40;;
63499;SDS011;49654;51.142;14.924;2023-03-23T05:52:26;7.00;;;4.60;;
63499;SDS011;49654;51.142;14.924;2023-03-23T05:54:53;8.35;;;4.43;;
63499;SDS011;49654;51.142;14.924;2023-03-23T05:57:20;5.70;;;4.28;;
63499;SDS011;49654;51.142;14.924;2023-03-23T05:59:48;9.65;;;4.63;;
63499;SDS011;49654;51.142;14.924;2023-03-23T06:02:15;7.72;;;4.15;;
63499;SDS011;49654;51.142;14.924;2023-03-23T06:04:42;8.25;;;4.63;;
63499;SDS011;49654;51.142;14.924;2023-03-23T06:07:11;8.55;;;4.70;;
63499;SDS011;49654;51.142;14.924;2023-03-23T06:09:40;6.93;;;4.85;;
63499;SDS011;49654;51.142;14.924;2023-03-23T06:12:08;7.13;;;5.30;;
63499;SDS011;49654;51.142;14.924;2023-03-23T06:14:36;9.65;;;4.60;;
63499;SDS011;49654;51.142;14.924;2023-03-23T06:17:04;5.20;;;4.35;;
63499;SDS011;49654;51.142;14.924;2023-03-23T06:19:31;6.18;;;4.65;;
63499;SDS011;49654;51.142;14.924;2023-03-23T06:21:59;8.30;;;5.47;;
63499;SDS011;49654;51.142;14.924;2023-03-23T06:24:28;7.32;;;4.90;;
63499;SDS011;49654;51.142;14.924;2023-03-23T06:26:55;9.60;;;5.30;;
63499;SDS011;49654;51.142;14.924;2023-03-23T06:29:22;6.90;;;5.00;;
63499;SDS011;49654;51.142;14.924;2023-03-23T06:31:51;8.10;;;5.55;;
63499;SDS011;49654;51.142;14.924;2023-03-23T06:34:19;10.23;;;5.78;;
63499;SDS011;49654;51.142;14.924;2023-03-23T06:36:47;8.63;;;4.72;;
63499;SDS011;49654;51.142;14.924;2023-03-23T06:39:14;8.65;;;4.97;;
63499;SDS011;49654;51.142;14.924;2023-03-23T06:41:42;8.60;;;5.05;;
63499;SDS011;49654;51.142;14.924;2023-03-23T06:44:09;7.20;;;4.72;;
63499;SDS011;49654;51.142;14.924;2023-03-23T06:46:38;7.43;;;4.90;;
63499;SDS011;49654;51.142;14.924;2023-03-23T06:49:06;5.45;;;4.35;;
63499;SDS011;49654;51.142;14.924;2023-03-23T06:51:34;8.75;;;4.50;;
63499;SDS011;49654;51.142;14.924;2023-03-23T06:54:02;7.10;;;4.40;;
63499;SDS011;49654;51.142;14.924;2023-03-23T06:56:29;5.97;;;4.63;;
63499;SDS011;49654;51.142;14.924;2023-03-23T06:58:58;5.35;;;4.32;;
63499;SDS011;49654;51.142;14.924;2023-03-23T07:01:25;5.95;;;4.60;;
63499;SDS011;49654;51.142;14.924;2023-03-23T07:03:53;6.32;;;4.70;;
63499;SDS011;49654;51.142;14.924;2023-03-23T07:06:21;6.22;;;4.68;;
63499;SDS011;49654;51.142;14.924;2023-03-23T07:08:50;6.60;;;4.65;;
63499;SDS011;49654;51.142;14.924;2023-03-23T07:11:17;8.25;;;4.55;;
63499;SDS011;49654;51.142;14.924;2023-03-23T07:13:44;7.70;;;4.85;;
63499;SDS011;49654;51.142;14.924;2023-03-23T07:16:13;9.02;;;4.63;;
63499;SDS011;49654;51.142;14.924;2023-03-23T07:18:40;5.95;;;4.57;;
63499;SDS011;49654;51.142;14.924;2023-03-23T07:21:07;7.30;;;4.95;;
63499;SDS011;49654;51.142;14.924;2023-03-23T07:23:34;8.27;;;5.30;;
63499;SDS011;49654;51.142;14.924;2023-03-23T07:26:01;7.57;;;4.88;;
63499;SDS011;49654;51.142;14.924;2023-03-23T07:28:28;9.48;;;4.93;;
63499;SDS011;49654;51.142;14.924;2023-03-23T07:30:56;5.97;;;4.40;;
63499;SDS011;49654;51.142;14.924;2023-03-23T07:33:24;9.93;;;5.35;;
63499;SDS011;49654;51.142;14.924;2023-03-23T07:35:52;8.52;;;5.05;;
63499;SDS011;49654;51.142;14.924;2023-03-23T07:38:19;7.05;;;5.40;;
63499;SDS011;49654;51.142;14.924;2023-03-23T07:40:46;7.63;;;5.28;;
63499;SDS011;49654;51.142;14.924;2023-03-23T07:43:13;5.47;;;4.78;;
63499;SDS011;49654;51.142;14.924;2023-03-23T07:45:40;7.30;;;4.95;;
63499;SDS011;49654;51.142;14.924;2023-03-23T07:48:07;7.65;;;4.97;;
63499;SDS011;49654;51.142;14.924;2023-03-23T07:50:35;6.32;;;4.93;;
63499;SDS011;49654;51.142;14.924;2023-03-23T07:53:03;7.43;;;4.90;;
63499;SDS011;49654;51.142;14.924;2023-03-23T07:55:30;9.43;;;5.60;;
63499;SDS011;49654;51.142;14.924;2023-03-23T07:57:57;8.98;;;5.22;;
63499;SDS011;49654;51.142;14.924;2023-03-23T08:00:24;9.48;;;4.88;;
63499;SDS011;49654;51.142;14.924;2023-03-23T08:02:52;9.43;;;5.53;;
63499;SDS011;49654;51.142;14.924;2023-03-23T08:05:21;8.77;;;4.60;;
63499;SDS011;49654;51.142;14.924;2023-03-23T08:07:50;10.32;;;4.57;;
63499;SDS011;49654;51.142;14.924;2023-03-23T08:10:17;7.45;;;4.53;;
63499;SDS011;49654;51.142;14.924;2023-03-23T08:12:44;7.15;;;4.63;;
63499;SDS011;49654;51.142;14.924;2023-03-23T08:15:12;7.78;;;4.32;;
63499;SDS011;49654;51.142;14.924;2023-03-23T08:17:41;5.53;;;4.50;;
63499;SDS011;49654;51.142;14.924;2023-03-23T08:20:09;7.15;;;4.38;;
63499;SDS011;49654;51.142;14.924;2023-03-23T08:22:38;7.07;;;4.60;;
63499;SDS011;49654;51.142;14.924;2023-03-23T08:25:09;6.10;;;4.53;;
63499;SDS011;49654;51.142;14.924;2023-03-23T08:27:37;6.18;;;4.25;;
63499;SDS011;49654;51.142;14.924;2023-03-23T08:30:09;7.97;;;4.05;;
63499;SDS011;49654;51.142;14.924;2023-03-23T08:32:37;6.95;;;3.85;;
63499;SDS011;49654;51.142;14.924;2023-03-23T08:35:05;5.25;;;3.97;;
63499;SDS011;49654;51.142;14.924;2023-03-23T08:37:33;6.82;;;4.03;;
63499;SDS011;49654;51.142;14.924;2023-03-23T08:40:00;6.05;;;3.70;;
63499;SDS011;49654;51.142;14.924;2023-03-23T08:42:34;6.85;;;3.67;;
63499;SDS011;49654;51.142;14.924;2023-03-23T08:45:01;4.57;;;3.65;;
63499;SDS011;49654;51.142;14.924;2023-03-23T08:47:29;5.05;;;3.70;;
63499;SDS011;49654;51.142;14.924;2023-03-23T08:49:56;5.55;;;3.13;;
63499;SDS011;49654;51.142;14.924;2023-03-23T08:52:23;5.03;;;3.35;;
63499;SDS011;49654;51.142;14.924;2023-03-23T08:54:50;5.35;;;3.97;;
63499;SDS011;49654;51.142;14.924;2023-03-23T08:57:17;4.47;;;3.40;;
63499;SDS011;49654;51.142;14.924;2023-03-23T08:59:46;4.22;;;3.40;;
63499;SDS011;49654;51.142;14.924;2023-03-23T09:02:13;6.13;;;3.42;;
63499;SDS011;49654;51.142;14.924;2023-03-23T09:04:40;5.15;;;3.63;;
63499;SDS011;49654;51.142;14.924;2023-03-23T09:07:08;4.60;;;3.47;;
63499;SDS011;49654;51.142;14.924;2023-03-23T09:09:36;5.75;;;3.35;;
63499;SDS011;49654;51.142;14.924;2023-03-23T09:12:04;6.85;;;3.78;;
63499;SDS011;49654;51.142;14.924;2023-03-23T09:14:32;4.88;;;3.60;;
63499;SDS011;49654;51.142;14.924;2023-03-23T09:17:00;5.07;;;3.67;;
63499;SDS011;49654;51.142;14.924;2023-03-23T09:19:28;5.90;;;3.95;;
63499;SDS011;49654;51.142;14.924;2023-03-23T09:21:55;4.78;;;3.83;;
63499;SDS011;49654;51.142;14.924;2023-03-23T09:24:22;6.32;;;3.85;;
63499;SDS011;49654;51.142;14.924;2023-03-23T09:26:49;6.18;;;3.85;;
63499;SDS011;49654;51.142;14.924;2023-03-23T09:29:16;3.67;;;3.30;;
63499;SDS011;49654;51.142;14.924;2023-03-23T09:31:44;3.25;;;1.85;;
63499;SDS011;49654;51.142;14.924;2023-03-23T09:34:14;3.08;;;1.98;;
63499;SDS011;49654;51.142;14.924;2023-03-23T09:36:42;3.22;;;1.90;;
63499;SDS011;49654;51.142;14.924;2023-03-23T09:39:10;3.65;;;2.78;;
63499;SDS011;49654;51.142;14.924;2023-03-23T09:41:48;5.28;;;2.20;;
63499;SDS011;49654;51.142;14.924;2023-03-23T09:44:38;3.50;;;2.22;;
63499;SDS011;49654;51.142;14.924;2023-03-23T09:47:18;8.27;;;3.42;;
63499;SDS011;49654;51.142;14.924;2023-03-23T09:49:56;6.03;;;4.07;;
63499;SDS011;49654;51.142;14.924;2023-03-23T09:52:27;4.05;;;2.90;;
63499;SDS011;49654;51.142;14.924;2023-03-23T09:55:04;4.45;;;2.85;;
63499;SDS011;49654;51.142;14.924;2023-03-23T09:57:32;11.85;;;9.18;;
63499;SDS011;49654;51.142;14.924;2023-03-23T10:00:09;5.93;;;3.28;;
63499;SDS011;49654;51.142;14.924;2023-03-23T10:02:41;6.35;;;2.72;;
63499;SDS011;49654;51.142;14.924;2023-03-23T10:05:25;9.93;;;2.60;;
63499;SDS011;49654;51.142;14.924;2023-03-23T10:07:56;5.10;;;2.42;;
63499;SDS011;49654;51.142;14.924;2023-03-23T10:10:24;4.13;;;2.30;;
63499;SDS011;49654;51.142;14.924;2023-03-23T10:12:59;4.65;;;2.35;;
63499;SDS011;49654;51.142;14.924;2023-03-23T10:15:31;5.07;;;2.42;;
63499;SDS011;49654;51.142;14.924;2023-03-23T10:18:03;3.85;;;2.38;;
63499;SDS011;49654;51.142;14.924;2023-03-23T10:20:41;4.53;;;3.20;;
63499;SDS011;49654;51.142;14.924;2023-03-23T10:23:20;9.23;;;5.82;;
63499;SDS011;49654;51.142;14.924;2023-03-23T10:26:05;5.97;;;4.88;;
63499;SDS011;49654;51.142;14.924;2023-03-23T10:28:37;6.75;;;4.70;;
63499;SDS011;49654;51.142;14.924;2023-03-23T10:31:09;12.90;;;10.18;;
63499;SDS011;49654;51.142;14.924;2023-03-23T10:33:38;3.92;;;2.58;;
63499;SDS011;49654;51.142;14.924;2023-03-23T10:36:10;5.07;;;2.33;;
63499;SDS011;49654;51.142;14.924;2023-03-23T10:38:43;8.00;;;2.80;;
63499;SDS011;49654;51.142;14.924;2023-03-23T10:41:13;4.05;;;2.42;;
63499;SDS011;49654;51.142;14.924;2023-03-23T10:43:41;2.83;;;2.20;;
63499;SDS011;49654;51.142;14.924;2023-03-23T10:46:12;4.38;;;2.53;;
63499;SDS011;49654;51.142;14.924;2023-03-23T10:48:49;3.83;;;2.15;;
63499;SDS011;49654;51.142;14.924;2023-03-23T10:51:19;5.30;;;2.42;;
63499;SDS011;49654;51.142;14.924;2023-03-23T10:53:51;2.60;;;1.95;;
63499;SDS011;49654;51.142;14.924;2023-03-23T10:56:23;3.47;;;2.25;;
63499;SDS011;49654;51.142;14.924;2023-03-23T10:58:53;4.95;;;2.42;;
63499;SDS011;49654;51.142;14.924;2023-03-23T11:01:30;4.90;;;2.30;;
63499;SDS011;49654;51.142;14.924;2023-03-23T11:04:00;3.65;;;2.65;;
63499;SDS011;49654;51.142;14.924;2023-03-23T11:06:29;4.35;;;2.67;;
63499;SDS011;49654;51.142;14.924;2023-03-23T11:09:01;5.47;;;2.65;;
63499;SDS011;49654;51.142;14.924;2023-03-23T11:11:37;4.93;;;2.60;;
63499;SDS011;49654;51.142;14.924;2023-03-23T11:14:13;4.15;;;2.85;;
63499;SDS011;49654;51.142;14.924;2023-03-23T11:16:45;5.22;;;2.80;;
63499;SDS011;49654;51.142;14.924;2023-03-23T11:19:20;3.30;;;2.30;;
63499;SDS011;49654;51.142;14.924;2023-03-23T11:21:51;4.80;;;2.75;;
63499;SDS011;49654;51.142;14.924;2023-03-23T11:24:21;3.65;;;2.33;;
63499;SDS011;49654;51.142;14.924;2023-03-23T11:26:49;4.18;;;2.80;;
63499;SDS011;49654;51.142;14.924;2023-03-23T11:29:19;5.03;;;2.30;;
63499;SDS011;49654;51.142;14.924;2023-03-23T11:31:49;3.25;;;2.30;;
63499;SDS011;49654;51.142;14.924;2023-03-23T11:34:19;4.78;;;2.47;;
63499;SDS011;49654;51.142;14.924;2023-03-23T11:36:48;4.20;;;2.30;;
63499;SDS011;49654;51.142;14.924;2023-03-23T11:39:21;4.70;;;2.45;;
63499;SDS011;49654;51.142;14.924;2023-03-23T11:41:50;4.20;;;2.72;;
63499;SDS011;49654;51.142;14.924;2023-03-23T11:44:17;4.05;;;3.13;;
63499;SDS011;49654;51.142;14.924;2023-03-23T11:46:47;6.03;;;2.47;;
63499;SDS011;49654;51.142;14.924;2023-03-23T11:49:25;5.00;;;2.17;;
63499;SDS011;49654;51.142;14.924;2023-03-23T11:52:19;4.60;;;2.25;;
63499;SDS011;49654;51.142;14.924;2023-03-23T11:54:52;3.58;;;2.13;;
63499;SDS011;49654;51.142;14.924;2023-03-23T11:57:27;3.53;;;1.98;;
63499;SDS011;49654;51.142;14.924;2023-03-23T11:59:56;5.50;;;2.25;;
63499;SDS011;49654;51.142;14.924;2023-03-23T12:02:32;5.43;;;2.10;;
63499;SDS011;49654;51.142;14.924;2023-03-23T12:05:39;2.75;;;1.92;;
63499;SDS011;49654;51.142;14.924;2023-03-23T12:08:20;2.03;;;1.80;;
63499;SDS011;49654;51.142;14.924;2023-03-23T12:10:58;4.18;;;2.17;;
63499;SDS011;49654;51.142;14.924;2023-03-23T12:13:37;3.35;;;1.77;;
63499;SDS011;49654;51.142;14.924;2023-03-23T12:16:30;3.08;;;1.55;;
63499;SDS011;49654;51.142;14.924;2023-03-23T12:19:08;3.00;;;1.70;;
63499;SDS011;49654;51.142;14.924;2023-03-23T12:21:45;3.38;;;1.90;;
63499;SDS011;49654;51.142;14.924;2023-03-23T12:24:24;4.00;;;1.63;;
63499;SDS011;49654;51.142;14.924;2023-03-23T12:27:00;2.50;;;1.77;;
63499;SDS011;49654;51.142;14.924;2023-03-23T12:29:43;2.90;;;1.90;;
63499;SDS011;49654;51.142;14.924;2023-03-23T12:32:20;3.30;;;1.65;;
63499;SDS011;49654;51.142;14.924;2023-03-23T12:34:58;2.42;;;1.55;;
63499;SDS011;49654;51.142;14.924;2023-03-23T12:37:38;1.88;;;1.30;;
63499;SDS011;49654;51.142;14.924;2023-03-23T12:40:22;1.80;;;1.40;;
63499;SDS011;49654;51.142;14.924;2023-03-23T12:43:01;3.92;;;1.58;;
63499;SDS011;49654;51.142;14.924;2023-03-23T12:48:41;2.38;;;1.27;;
63499;SDS011;49654;51.142;14.924;2023-03-23T12:51:14;5.47;;;1.42;;
63499;SDS011;49654;51.142;14.924;2023-03-23T12:53:49;2.50;;;1.42;;
63499;SDS011;49654;51.142;14.924;2023-03-23T12:56:22;1.70;;;1.40;;
63499;SDS011;49654;51.142;14.924;2023-03-23T12:58:56;1.90;;;1.30;;
63499;SDS011;49654;51.142;14.924;2023-03-23T13:01:28;2.40;;;1.40;;
63499;SDS011;49654;51.142;14.924;2023-03-23T13:04:00;2.20;;;1.27;;
63499;SDS011;49654;51.142;14.924;2023-03-23T13:06:31;1.45;;;1.30;;
63499;SDS011;49654;51.142;14.924;2023-03-23T13:09:03;2.83;;;1.42;;
63499;SDS011;49654;51.142;14.924;2023-03-23T13:11:36;2.20;;;1.80;;
63499;SDS011;49654;51.142;14.924;2023-03-23T13:14:09;2.42;;;1.95;;
63499;SDS011;49654;51.142;14.924;2023-03-23T13:16:47;3.47;;;2.03;;
63499;SDS011;49654;51.142;14.924;2023-03-23T13:19:24;4.13;;;2.08;;
63499;SDS011;49654;51.142;14.924;2023-03-23T13:21:58;3.40;;;2.25;;
63499;SDS011;49654;51.142;14.924;2023-03-23T13:24:33;4.25;;;2.00;;
63499;SDS011;49654;51.142;14.924;2023-03-23T13:27:05;5.05;;;2.20;;
63499;SDS011;49654;51.142;14.924;2023-03-23T13:29:43;6.18;;;2.80;;
63499;SDS011;49654;51.142;14.924;2023-03-23T13:32:12;3.80;;;2.65;;
63499;SDS011;49654;51.142;14.924;2023-03-23T13:34:42;3.70;;;2.90;;
63499;SDS011;49654;51.142;14.924;2023-03-23T13:37:10;5.00;;;2.90;;
63499;SDS011;49654;51.142;14.924;2023-03-23T13:39:50;3.33;;;2.92;;
63499;SDS011;49654;51.142;14.924;2023-03-23T13:42:23;3.70;;;2.80;;
63499;SDS011;49654;51.142;14.924;2023-03-23T13:44:55;4.50;;;3.00;;
63499;SDS011;49654;51.142;14.924;2023-03-23T13:47:36;5.80;;;3.50;;
63499;SDS011;49654;51.142;14.924;2023-03-23T13:50:10;4.13;;;3.17;;
63499;SDS011;49654;51.142;14.924;2023-03-23T13:52:47;6.55;;;2.90;;
63499;SDS011;49654;51.142;14.924;2023-03-23T13:55:19;3.33;;;2.63;;
63499;SDS011;49654;51.142;14.924;2023-03-23T14:25:11;5.18;;;3.20;;
63499;SDS011;49654;51.142;14.924;2023-03-23T14:27:40;4.90;;;3.10;;
63499;SDS011;49654;51.142;14.924;2023-03-23T14:30:08;3.53;;;2.67;;
63499;SDS011;49654;51.142;14.924;2023-03-23T14:32:39;3.58;;;2.60;;
63499;SDS011;49654;51.142;14.924;2023-03-23T14:35:07;2.90;;;2.20;;
63499;SDS011;49654;51.142;14.924;2023-03-23T14:37:39;3.63;;;2.67;;
63499;SDS011;49654;51.142;14.924;2023-03-23T14:40:08;2.58;;;2.10;;
63499;SDS011;49654;51.142;14.924;2023-03-23T14:42:40;6.68;;;2.00;;
63499;SDS011;49654;51.142;14.924;2023-03-23T14:45:11;4.40;;;2.20;;
63499;SDS011;49654;51.142;14.924;2023-03-23T14:47:42;5.35;;;2.40;;
63499;SDS011;49654;51.142;14.924;2023-03-23T14:50:22;3.83;;;2.10;;
63499;SDS011;49654;51.142;14.924;2023-03-23T14:52:51;4.07;;;2.63;;
63499;SDS011;49654;51.142;14.924;2023-03-23T14:55:21;5.07;;;1.88;;
63499;SDS011;49654;51.142;14.924;2023-03-23T14:57:49;4.40;;;1.90;;
63499;SDS011;49654;51.142;14.924;2023-03-23T15:00:17;3.00;;;2.00;;
63499;SDS011;49654;51.142;14.924;2023-03-23T15:02:48;4.97;;;1.90;;
63499;SDS011;49654;51.142;14.924;2023-03-23T15:05:18;2.50;;;1.70;;
63499;SDS011;49654;51.142;14.924;2023-03-23T15:07:50;3.67;;;1.77;;
63499;SDS011;49654;51.142;14.924;2023-03-23T15:10:22;2.88;;;1.85;;
63499;SDS011;49654;51.142;14.924;2023-03-23T15:12:50;2.42;;;2.00;;
63499;SDS011;49654;51.142;14.924;2023-03-23T15:15:25;3.30;;;2.03;;
63499;SDS011;49654;51.142;14.924;2023-03-23T15:17:54;4.80;;;2.30;;
63499;SDS011;49654;51.142;14.924;2023-03-23T15:20:22;4.90;;;2.30;;
63499;SDS011;49654;51.142;14.924;2023-03-23T15:22:51;3.95;;;2.40;;
63499;SDS011;49654;51.142;14.924;2023-03-23T15:25:20;3.50;;;2.40;;
63499;SDS011;49654;51.142;14.924;2023-03-23T15:27:50;3.95;;;2.63;;